Time;durP1;ratioP1;P1;durP2;ratioP2;P2;SDS_P1;SDS_P2;PMS_P1;PMS_P2;Temp;Humidity;BMP_temperature;BMP_pressure;BME280_temperature;BME280_humidity;BME280_pressure;Samples;Min_cycle;Max_cycle;Signal;HPM_P1;HPM_P2
2023/09/24 10:07:40;;;;;;;8.10;3.40;;;;;;;34.63;26.59;101254.20;106383;1262;66004;-89
2023/09/24 10:10:35;;;;;;;7.30;3.60;;;;;;;34.71;26.55;101245.74;106491;1259;61290;-86
2023/09/24 10:13:04;;;;;;;6.80;3.60;;;;;;;34.75;26.92;101241.79;106106;1260;64106;-86
2023/09/24 10:15:31;;;;;;;10.70;3.60;;;;;;;34.93;26.79;101243.73;106122;1262;61312;-86
2023/09/24 10:18:08;;;;;;;6.10;3.10;;;;;;;35.05;26.40;101244.42;106066;1259;61811;-86
2023/09/24 10:20:53;;;;;;;5.80;3.30;;;;;;;35.12;25.95;101249.08;106249;1259;66088;-89
2023/09/24 10:23:29;;;;;;;5.10;3.20;;;;;;;34.97;25.57;101244.65;106250;1262;60074;-90
2023/09/24 10:25:59;;;;;;;8.40;3.40;;;;;;;34.88;25.83;101239.98;106143;1259;62911;-86
2023/09/24 10:28:50;;;;;;;5.00;3.10;;;;;;;34.89;25.90;101242.33;106230;1259;61249;-87
2023/09/24 10:31:20;;;;;;;5.50;2.40;;;;;;;34.87;25.65;101238.70;106126;1257;61242;-91
2023/09/24 10:33:57;;;;;;;6.50;3.00;;;;;;;34.93;25.82;101237.39;106215;1260;64786;-86
2023/09/24 10:36:34;;;;;;;3.10;2.30;;;;;;;34.98;25.57;101233.84;106052;1260;61342;-90
2023/09/24 10:39:10;;;;;;;4.00;2.20;;;;;;;35.04;25.56;101232.60;106460;1258;64058;-86
2023/09/24 10:42:17;;;;;;;7.70;2.40;;;;;;;35.14;25.65;101226.54;106054;1257;62247;-90
2023/09/24 10:44:45;;;;;;;6.60;2.00;;;;;;;35.18;25.02;101223.56;106150;1258;61318;-85
2023/09/24 10:47:38;;;;;;;5.30;2.90;;;;;;;35.23;24.86;101229.63;106298;1258;66034;-90
2023/09/24 10:50:06;;;;;;;9.20;2.80;;;;;;;35.19;24.57;101224.20;106012;1259;61219;-88
2023/09/24 10:52:55;;;;;;;3.30;2.10;;;;;;;35.00;24.80;101225.94;107037;1262;62541;-86
2023/09/24 10:57:59;;;;;;;5.60;2.50;;;;;;;34.97;24.60;101228.59;106143;1262;61251;-85
2023/09/24 11:00:27;;;;;;;7.20;2.60;;;;;;;34.94;24.86;101225.63;106180;1257;65723;-84
2023/09/24 11:02:58;;;;;;;4.00;2.30;;;;;;;34.92;24.89;101225.89;106249;1259;61218;-86
2023/09/24 11:05:26;;;;;;;7.40;2.70;;;;;;;34.87;24.79;101220.22;106149;1262;63742;-86
2023/09/24 11:07:56;;;;;;;6.50;2.90;;;;;;;34.83;24.82;101218.57;106379;1258;61401;-90
2023/09/24 11:10:24;;;;;;;6.80;2.60;;;;;;;34.74;25.11;101220.66;106226;1260;61273;-86
2023/09/24 11:13:00;;;;;;;7.30;2.80;;;;;;;34.72;25.22;101219.95;106101;1257;65090;-86
2023/09/24 11:15:32;;;;;;;9.20;3.00;;;;;;;34.75;25.22;101216.66;106167;1262;61366;-86
2023/09/24 11:17:59;;;;;;;8.60;2.90;;;;;;;34.73;25.33;101216.86;106898;1257;64571;-87
2023/09/24 11:20:30;;;;;;;8.70;2.80;;;;;;;34.69;25.21;101216.67;106085;1260;61247;-85
2023/09/24 11:22:59;;;;;;;4.30;2.80;;;;;;;34.60;25.57;101214.84;106069;1257;61366;-85
2023/09/24 11:25:26;;;;;;;8.00;3.10;;;;;;;34.59;25.68;101210.55;106259;1262;65882;-90
2023/09/24 11:27:57;;;;;;;4.60;2.40;;;;;;;34.55;25.84;101211.41;106300;1262;61051;-86
2023/09/24 11:30:27;;;;;;;9.30;3.10;;;;;;;34.54;25.62;101211.50;106101;1257;63742;-85
2023/09/24 11:32:54;;;;;;;5.20;2.30;;;;;;;34.62;25.65;101211.41;105943;1263;61357;-90
2023/09/24 11:35:22;;;;;;;3.40;2.30;;;;;;;34.65;25.71;101208.44;106076;1260;61233;-86
2023/09/24 11:37:54;;;;;;;6.80;2.40;;;;;;;34.63;25.67;101210.73;106096;1259;65004;-85
2023/09/24 11:40:21;;;;;;;6.70;2.80;;;;;;;34.65;25.63;101209.98;106078;1258;61878;-86
2023/09/24 11:42:51;;;;;;;17.80;3.90;;;;;;;34.69;25.34;101210.98;106248;1262;64038;-91
2023/09/24 11:45:43;;;;;;;6.50;2.50;;;;;;;34.66;25.71;101210.30;106076;1259;61381;-90
2023/09/24 11:48:12;;;;;;;5.50;2.20;;;;;;;34.55;25.51;101208.83;106080;1259;61302;-90
2023/09/24 11:50:41;;;;;;;4.70;1.90;;;;;;;34.46;25.48;101212.84;106309;1257;66301;-88
2023/09/24 11:53:08;;;;;;;6.40;2.40;;;;;;;34.36;25.78;101214.76;106123;1259;61243;-90
2023/09/24 11:55:35;;;;;;;6.30;2.30;;;;;;;34.29;25.88;101212.00;106046;1265;64579;-90
2023/09/24 11:58:03;;;;;;;6.90;2.20;;;;;;;34.23;25.90;101213.37;106384;1260;61099;-90
2023/09/24 12:00:30;;;;;;;3.90;2.20;;;;;;;34.22;25.54;101217.11;106316;1259;59253;-89
2023/09/24 12:02:59;;;;;;;5.10;2.20;;;;;;;34.12;25.62;101217.89;106247;1261;66126;-89
2023/09/24 12:05:45;;;;;;;6.10;2.30;;;;;;;34.13;25.84;101218.20;106124;1260;61291;-86
2023/09/24 12:08:12;;;;;;;8.70;2.20;;;;;;;34.14;25.83;101220.77;106093;1262;63889;-90
2023/09/24 12:10:40;;;;;;;5.50;2.10;;;;;;;34.09;26.34;101219.29;106129;1262;61268;-88
2023/09/24 12:13:08;;;;;;;11.70;2.80;;;;;;;34.06;26.07;101220.69;106026;1262;61335;-90
2023/09/24 12:15:35;;;;;;;5.60;2.50;;;;;;;34.07;26.37;101218.34;106089;1258;66134;-90
2023/09/24 12:18:04;;;;;;;4.50;2.10;;;;;;;34.15;26.29;101217.61;106082;1262;61254;-86
2023/09/24 12:20:32;;;;;;;6.90;2.30;;;;;;;34.21;26.07;101217.05;106017;1260;64082;-86
2023/09/24 12:23:01;;;;;;;7.00;2.40;;;;;;;34.18;25.81;101217.48;105985;1258;61279;-89
2023/09/24 12:25:31;;;;;;;6.40;2.00;;;;;;;34.14;25.70;101213.88;106253;1258;61244;-86
2023/09/24 12:27:58;;;;;;;7.80;2.80;;;;;;;34.11;25.81;101218.47;106057;1262;66393;-89
2023/09/24 12:30:25;;;;;;;7.00;2.20;;;;;;;34.07;25.98;101217.20;106114;1262;61197;-90
2023/09/24 12:32:52;;;;;;;5.10;2.30;;;;;;;34.09;26.20;101220.69;106454;1257;64297;-85
2023/09/24 12:35:19;;;;;;;3.80;2.20;;;;;;;34.12;26.35;101216.84;106309;1259;61357;-87
2023/09/24 12:37:46;;;;;;;6.90;2.40;;;;;;;34.12;26.04;101219.19;106153;1259;61234;-85
2023/09/24 12:40:13;;;;;;;9.10;2.30;;;;;;;34.18;25.94;101215.14;106089;1259;65759;-87
2023/09/24 12:42:41;;;;;;;5.20;2.10;;;;;;;34.15;25.70;101213.06;106073;1259;61398;-85
2023/09/24 12:45:10;;;;;;;8.10;2.50;;;;;;;34.08;25.94;101212.26;106202;1259;63720;-86
2023/09/24 12:47:37;;;;;;;4.90;2.40;;;;;;;34.07;26.14;101214.85;106151;1262;61144;-89
2023/09/24 12:50:06;;;;;;;5.70;2.60;;;;;;;34.08;26.33;101210.88;106021;1260;61287;-89
2023/09/24 12:52:41;;;;;;;6.90;2.20;;;;;;;34.07;26.25;101213.55;106129;1264;66452;-90
2023/09/24 12:55:10;;;;;;;3.00;2.10;;;;;;;34.13;26.01;101211.96;106338;1260;61365;-88
2023/09/24 12:57:42;;;;;;;12.10;2.60;;;;;;;34.04;26.09;101209.95;106154;1260;62453;-90
2023/09/24 13:00:12;;;;;;;6.20;2.30;;;;;;;33.98;26.08;101211.29;106198;1262;61250;-89
2023/09/24 13:02:46;;;;;;;7.20;2.70;;;;;;;33.94;26.12;101213.29;106187;1260;60062;-88
2023/09/24 13:05:16;;;;;;;5.10;2.30;;;;;;;33.92;26.37;101211.37;106127;1259;64795;-86
2023/09/24 13:07:43;;;;;;;5.00;2.10;;;;;;;33.93;26.50;101208.44;106031;1258;61356;-86
2023/09/24 13:10:14;;;;;;;9.50;2.10;;;;;;;33.82;26.36;101202.73;105979;1259;64013;-86
2023/09/24 13:12:41;;;;;;;5.90;2.20;;;;;;;33.80;26.60;101200.98;106089;1257;61298;-86
2023/09/24 13:15:09;;;;;;;7.00;3.10;;;;;;;33.80;26.64;101202.35;105996;1260;61154;-86
2023/09/24 13:17:36;;;;;;;10.50;2.60;;;;;;;33.81;26.87;101203.14;106525;1261;66035;-88
2023/09/24 13:20:04;;;;;;;5.40;2.10;;;;;;;33.75;27.08;101201.27;105984;1264;61337;-88
2023/09/24 13:22:32;;;;;;;7.30;2.60;;;;;;;33.76;27.11;101200.27;105990;1263;64102;-89
2023/09/24 13:24:59;;;;;;;5.50;2.20;;;;;;;33.83;27.02;101201.18;106128;1258;61184;-89
2023/09/24 13:27:26;;;;;;;8.40;2.90;;;;;;;33.86;27.03;101199.95;106246;1258;61228;-89
2023/09/24 13:29:53;;;;;;;6.00;2.40;;;;;;;33.82;27.11;101198.77;106605;1259;65835;-88
2023/09/24 13:32:21;;;;;;;4.70;2.20;;;;;;;33.80;27.05;101198.55;106461;1262;61170;-89
2023/09/24 13:34:47;;;;;;;4.50;2.30;;;;;;;33.75;27.06;101204.02;106037;1258;64278;-89
2023/09/24 13:37:15;;;;;;;10.60;2.70;;;;;;;33.69;27.08;101204.50;106195;1262;61268;-89
2023/09/24 13:39:42;;;;;;;7.50;2.70;;;;;;;33.63;27.09;101203.42;106163;1259;61315;-89
2023/09/24 13:42:09;;;;;;;7.70;2.70;;;;;;;33.58;27.17;101207.19;105977;1258;65848;-89
2023/09/24 13:44:36;;;;;;;5.40;2.60;;;;;;;33.60;27.38;101202.89;106596;1257;61103;-88
2023/09/24 13:47:03;;;;;;;8.60;2.50;;;;;;;33.60;27.51;101204.90;106198;1259;62543;-87
2023/09/24 13:49:36;;;;;;;18.80;3.50;;;;;;;33.60;27.60;101207.91;105967;1258;61270;-88
2023/09/24 13:52:04;;;;;;;4.70;2.50;;;;;;;33.57;27.76;101208.58;106068;1262;61235;-88
2023/09/24 13:54:31;;;;;;;7.20;2.30;;;;;;;33.54;27.78;101208.34;106007;1258;65834;-89
2023/09/24 13:56:59;;;;;;;9.90;2.80;;;;;;;33.54;27.67;101212.32;106117;1260;61346;-89
2023/09/24 13:59:26;;;;;;;10.60;2.50;;;;;;;33.64;27.83;101209.00;106519;1260;62555;-88
2023/09/24 14:01:53;;;;;;;5.40;2.30;;;;;;;33.61;27.94;101209.27;106174;1262;61266;-89
2023/09/24 14:04:20;;;;;;;7.20;2.80;;;;;;;33.52;28.16;101208.86;105936;1264;61228;-88
2023/09/24 14:06:47;;;;;;;6.40;2.20;;;;;;;33.40;28.10;101205.48;106004;1257;64648;-89
2023/09/24 14:14:48;;;;;;;4.40;2.60;;;;;;;33.29;28.35;101200.24;106108;1260;61128;-88
2023/09/24 14:17:16;;;;;;;5.80;2.60;;;;;;;33.18;28.50;101203.33;106113;1260;61245;-86
2023/09/24 14:19:43;;;;;;;7.30;2.40;;;;;;;33.12;28.78;101202.40;106063;1261;67215;-88
2023/09/24 14:22:10;;;;;;;5.50;2.70;;;;;;;33.07;29.00;101199.94;106237;1259;61228;-86
2023/09/24 14:24:37;;;;;;;4.50;2.30;;;;;;;32.96;29.26;101198.38;106029;1260;62660;-89
2023/09/24 14:27:08;;;;;;;4.70;2.30;;;;;;;32.87;29.56;101197.55;106079;1256;61117;-87
2023/09/24 14:29:35;;;;;;;5.10;2.40;;;;;;;32.82;29.64;101196.77;105998;1257;61264;-87
2023/09/24 14:32:03;;;;;;;7.30;2.60;;;;;;;32.69;29.79;101200.59;106108;1262;65832;-86
2023/09/24 14:34:30;;;;;;;5.90;2.00;;;;;;;32.50;29.99;101202.79;105959;1262;61270;-86
2023/09/24 14:36:57;;;;;;;4.80;2.60;;;;;;;32.41;30.05;101202.02;106439;1262;64577;-87
2023/09/24 14:39:24;;;;;;;3.80;2.40;;;;;;;32.30;30.19;101203.76;106054;1262;61258;-88
2023/09/24 14:41:51;;;;;;;10.50;2.60;;;;;;;32.22;30.51;101201.30;105992;1260;61225;-86
2023/09/24 14:44:18;;;;;;;7.90;2.40;;;;;;;32.16;30.60;101202.92;106096;1262;65749;-86
2023/09/24 14:46:47;;;;;;;4.40;2.30;;;;;;;32.17;30.67;101206.56;106097;1262;61146;-86
2023/09/24 14:49:14;;;;;;;7.50;2.70;;;;;;;32.08;30.98;101213.55;107149;1257;63801;-88
2023/09/24 14:51:41;;;;;;;4.70;2.50;;;;;;;31.97;31.07;101215.85;106162;1258;61326;-86
2023/09/24 14:54:13;;;;;;;7.40;2.70;;;;;;;31.89;31.42;101217.70;106120;1258;61151;-88
2023/09/24 14:56:46;;;;;;;8.40;3.00;;;;;;;31.77;31.71;101224.50;106064;1260;65918;-87
2023/09/24 14:59:14;;;;;;;10.40;3.20;;;;;;;31.63;31.90;101224.61;106039;1259;61802;-88
2023/09/24 15:01:43;;;;;;;8.80;3.00;;;;;;;31.49;32.19;101221.80;106101;1262;64530;-89
2023/09/24 15:04:11;;;;;;;9.80;3.00;;;;;;;31.41;32.47;101228.66;105991;1257;61312;-89
2023/09/24 15:06:39;;;;;;;10.00;3.20;;;;;;;31.32;32.65;101229.45;106398;1262;61293;-87
2023/09/24 15:09:06;;;;;;;5.40;3.20;;;;;;;31.28;32.71;101231.55;106044;1259;67069;-87
2023/09/24 15:11:33;;;;;;;6.20;3.40;;;;;;;31.10;33.22;101231.93;106104;1263;61260;-86
2023/09/24 15:14:00;;;;;;;6.90;2.70;;;;;;;30.98;33.47;101234.17;106119;1262;63854;-86
2023/09/24 15:16:29;;;;;;;8.30;3.00;;;;;;;30.97;33.66;101235.63;106058;1258;61271;-88
2023/09/24 15:18:57;;;;;;;5.40;2.70;;;;;;;30.95;33.80;101235.05;106023;1262;61215;-87
2023/09/24 15:21:24;;;;;;;7.60;2.90;;;;;;;30.93;33.80;101235.06;106164;1260;67219;-87
2023/09/24 15:23:51;;;;;;;7.10;3.10;;;;;;;30.87;34.22;101237.05;105979;1262;61225;-88
2023/09/24 15:26:19;;;;;;;7.60;3.80;;;;;;;30.68;35.56;101237.70;106112;1262;63811;-87
2023/09/24 15:28:46;;;;;;;11.80;5.30;;;;;;;30.52;36.39;101244.50;106036;1262;61298;-89
2023/09/24 15:31:16;;;;;;;21.60;9.60;;;;;;;30.35;36.96;101245.65;106081;1262;61216;-88
2023/09/24 15:33:43;;;;;;;25.60;13.10;;;;;;;30.16;37.28;101245.14;105904;1258;65893;-86
2023/09/24 15:36:10;;;;;;;26.10;13.10;;;;;;;30.10;37.65;101247.85;106137;1259;61343;-88
2023/09/24 15:38:38;;;;;;;22.90;11.60;;;;;;;29.96;37.83;101255.25;106203;1260;74136;-88
2023/09/24 15:41:06;;;;;;;24.90;11.00;;;;;;;29.80;38.41;101254.66;106284;1258;61324;-87
2023/09/24 15:43:33;;;;;;;16.70;8.00;;;;;;;29.68;39.06;101253.36;106160;1257;61321;-86
2023/09/24 15:46:00;;;;;;;20.00;6.50;;;;;;;29.53;39.58;101256.52;106103;1262;67222;-87
2023/09/24 15:48:28;;;;;;;16.70;4.50;;;;;;;29.33;39.95;101262.71;106151;1258;61318;-87
2023/09/24 15:50:55;;;;;;;18.70;7.70;;;;;;;29.10;40.62;101267.15;105927;1260;63697;-87
2023/09/24 15:53:23;;;;;;;14.00;6.50;;;;;;;28.91;41.47;101269.52;107721;1259;60514;-91
2023/09/24 15:55:50;;;;;;;20.30;7.00;;;;;;;28.74;42.54;101275.19;106044;1260;61360;-88
2023/09/24 15:58:17;;;;;;;20.20;6.90;;;;;;;28.50;43.39;101277.29;106110;1263;66096;-88
2023/09/24 16:00:45;;;;;;;23.20;6.90;;;;;;;28.35;43.84;101277.57;106012;1261;61295;-87
2023/09/24 16:03:15;;;;;;;20.00;6.50;;;;;;;28.21;44.35;101275.05;105951;1263;63938;-87
2023/09/24 16:05:42;;;;;;;25.50;6.90;;;;;;;27.96;45.40;101274.79;106114;1259;61341;-87
2023/09/24 16:08:10;;;;;;;15.40;6.90;;;;;;;27.76;46.18;101281.98;106022;1262;61149;-86
2023/09/24 16:10:39;;;;;;;25.90;7.60;;;;;;;27.60;47.24;101285.26;106390;1262;66136;-86
2023/09/24 16:13:06;;;;;;;24.80;7.10;;;;;;;27.45;48.25;101284.77;105939;1260;61247;-89
2023/09/24 16:15:34;;;;;;;27.60;7.60;;;;;;;27.31;49.27;101291.73;105974;1260;63890;-86
2023/09/24 16:18:01;;;;;;;29.10;7.30;;;;;;;27.14;50.28;101293.96;106246;1258;61363;-89
2023/09/24 16:20:31;;;;;;;24.60;7.90;;;;;;;26.97;51.24;101291.89;106023;1258;206499;-86
2023/09/24 16:22:58;;;;;;;21.50;7.80;;;;;;;26.82;51.26;101293.69;106519;1262;66201;-88
2023/09/24 16:25:25;;;;;;;14.70;7.40;;;;;;;26.58;52.21;101290.88;106315;1260;61367;-87
2023/09/24 16:27:53;;;;;;;22.50;7.10;;;;;;;26.44;53.16;101298.85;106611;1257;65169;-88
2023/09/24 16:30:20;;;;;;;21.00;6.00;;;;;;;26.32;53.07;101304.21;106092;1259;61239;-89
2023/09/24 16:32:48;;;;;;;15.60;5.70;;;;;;;26.10;53.14;101305.89;105971;1263;61376;-87
2023/09/24 16:35:16;;;;;;;11.10;5.50;;;;;;;25.93;53.15;101310.77;105960;1260;64805;-85
2023/09/24 16:37:46;;;;;;;11.80;6.00;;;;;;;25.83;54.02;101314.89;105977;1262;61085;-88
2023/09/24 16:40:13;;;;;;;13.70;6.50;;;;;;;25.69;55.95;101319.34;106146;1261;64188;-85
2023/09/24 16:42:40;;;;;;;20.50;6.70;;;;;;;25.59;58.41;101321.56;107178;1257;61154;-89
2023/09/24 16:45:07;;;;;;;21.30;6.90;;;;;;;25.39;60.34;101325.77;106109;1262;61257;-86
2023/09/24 16:47:35;;;;;;;14.30;6.60;;;;;;;25.20;61.93;101331.83;106141;1262;75162;-87
2023/09/24 16:50:02;;;;;;;20.80;6.30;;;;;;;25.14;62.66;101332.11;105979;1260;69790;-88
2023/09/24 16:52:30;;;;;;;22.60;6.60;;;;;;;25.10;62.82;101333.17;106068;1262;74395;-86
2023/09/24 16:54:57;;;;;;;13.60;5.70;;;;;;;24.94;63.88;101339.55;106111;1257;61532;-87
2023/09/24 16:57:24;;;;;;;14.10;6.00;;;;;;;24.82;64.81;101341.36;106164;1262;61072;-88
2023/09/24 16:59:51;;;;;;;18.00;6.90;;;;;;;24.71;65.86;101344.85;106145;1263;75702;-86
2023/09/24 17:02:18;;;;;;;12.90;5.90;;;;;;;24.64;66.72;101341.05;106071;1262;70223;-87
2023/09/24 17:04:45;;;;;;;19.90;5.80;;;;;;;24.52;66.43;101340.86;106202;1263;72802;-88
2023/09/24 17:07:13;;;;;;;11.00;5.50;;;;;;;24.41;63.10;101341.38;106131;1262;61267;-89
2023/09/24 17:09:40;;;;;;;11.10;5.00;;;;;;;24.30;62.76;101344.47;105967;1262;61916;-86
2023/09/24 17:12:07;;;;;;;10.80;5.60;;;;;;;24.19;62.82;101345.41;105959;1260;73311;-89
2023/09/24 17:14:34;;;;;;;12.50;6.20;;;;;;;24.00;64.17;101346.55;106001;1258;69642;-86
2023/09/24 17:17:01;;;;;;;9.40;5.40;;;;;;;23.87;65.40;101349.96;106180;1260;71461;-88
2023/09/24 17:19:29;;;;;;;11.50;6.00;;;;;;;23.86;66.60;101348.39;106252;1257;61342;-85
2023/09/24 17:21:58;;;;;;;12.20;6.00;;;;;;;23.75;68.80;101349.08;106077;1262;61256;-85
2023/09/24 17:24:27;;;;;;;10.10;5.30;;;;;;;23.70;69.64;101349.29;106048;1263;74620;-89
2023/09/24 17:26:55;;;;;;;16.60;6.60;;;;;;;23.54;70.56;101349.30;106122;1257;67245;-86
2023/09/24 17:29:23;;;;;;;14.50;6.40;;;;;;;23.53;71.55;101348.80;106144;1261;73858;-85
2023/09/24 17:31:50;;;;;;;18.40;6.50;;;;;;;23.54;71.97;101351.61;105991;1258;61464;-89
2023/09/24 17:34:19;;;;;;;17.00;6.50;;;;;;;23.43;73.45;101351.38;105991;1261;61244;-85
2023/09/24 17:36:50;;;;;;;15.00;6.20;;;;;;;23.40;74.28;101352.65;106530;1262;73101;-89
2023/09/24 17:39:17;;;;;;;15.00;5.60;;;;;;;23.32;75.27;101355.53;106085;1262;70092;-85
2023/09/24 17:41:45;;;;;;;12.60;5.90;;;;;;;23.28;75.99;101354.19;106024;1264;71180;-89
2023/09/24 17:44:15;;;;;;;16.80;7.70;;;;;;;23.26;75.87;101354.94;105961;1263;61635;-90
2023/09/24 17:46:42;;;;;;;11.30;7.60;;;;;;;23.14;76.74;101358.23;106057;1258;61264;-89
2023/09/24 17:49:10;;;;;;;12.70;10.70;;;;;;;23.10;76.85;101362.64;106088;1262;74826;-85
2023/09/24 17:51:39;;;;;;;15.50;7.60;;;;;;;22.91;77.91;101364.54;105941;1263;68920;-86
2023/09/24 17:54:06;;;;;;;15.50;6.90;;;;;;;22.86;77.46;101365.61;106001;1258;72403;-85
2023/09/24 17:56:34;;;;;;;14.40;6.80;;;;;;;22.84;77.54;101363.45;106009;1260;61214;-85
2023/09/24 17:59:01;;;;;;;13.60;5.90;;;;;;;22.79;79.02;101365.20;105929;1257;61266;-85
2023/09/24 18:01:28;;;;;;;17.20;7.10;;;;;;;22.77;80.18;101366.80;106231;1263;74596;-86
2023/09/24 18:03:55;;;;;;;13.90;7.10;;;;;;;22.67;81.74;101373.13;106518;1262;67225;-89
2023/09/24 18:06:23;;;;;;;14.40;6.10;;;;;;;22.62;82.46;101374.19;105903;1263;71493;-89
2023/09/24 18:08:51;;;;;;;12.80;6.50;;;;;;;22.52;83.37;101375.80;106086;1259;61238;-85
2023/09/24 18:11:18;;;;;;;10.00;5.50;;;;;;;22.48;83.29;101380.43;106146;1262;62274;-86
2023/09/24 18:13:45;;;;;;;14.60;5.10;;;;;;;22.40;83.45;101379.77;106072;1263;74660;-85
2023/09/24 18:16:13;;;;;;;14.50;7.00;;;;;;;22.34;83.53;101380.59;106100;1262;68507;-89
2023/09/24 18:18:40;;;;;;;11.80;5.80;;;;;;;22.19;84.07;101379.03;106104;1259;72956;-89
2023/09/24 18:21:07;;;;;;;12.50;6.40;;;;;;;22.24;83.94;101381.54;107638;1257;61344;-87
2023/09/24 18:23:34;;;;;;;10.20;5.70;;;;;;;22.17;84.66;101381.48;105893;1258;61114;-86
2023/09/24 18:26:02;;;;;;;11.40;6.50;;;;;;;22.08;85.62;101377.83;106039;1257;75580;-85
2023/09/24 18:28:30;;;;;;;14.90;6.60;;;;;;;22.19;85.17;101378.47;106076;1257;69977;-85
2023/09/24 18:30:57;;;;;;;12.50;5.90;;;;;;;22.21;85.82;101382.81;106130;1258;70697;-85
2023/09/24 18:33:29;;;;;;;12.20;6.60;;;;;;;22.24;85.46;101388.77;106476;1257;61263;-88
2023/09/24 18:35:56;;;;;;;16.40;6.30;;;;;;;22.27;85.48;101392.89;106117;1264;61177;-85
2023/09/24 18:38:27;;;;;;;12.70;6.40;;;;;;;22.19;85.31;101396.27;106182;1258;76277;-85
2023/09/24 18:40:55;;;;;;;15.20;6.30;;;;;;;22.16;85.46;101398.58;106041;1257;70066;-85
2023/09/24 18:43:26;;;;;;;11.10;6.40;;;;;;;22.04;86.25;101395.89;105929;1259;73598;-85
2023/09/24 18:45:55;;;;;;;12.80;6.90;;;;;;;21.97;87.61;101399.86;106198;1257;61308;-88
2023/09/24 18:48:23;;;;;;;11.40;5.70;;;;;;;21.84;88.03;101403.01;105971;1263;61315;-85
2023/09/24 18:50:50;;;;;;;9.90;6.00;;;;;;;21.82;87.61;101401.86;106128;1262;76010;-85
2023/09/24 18:53:18;;;;;;;11.10;6.20;;;;;;;21.80;88.25;101406.98;106080;1258;67278;-85
2023/09/24 18:55:46;;;;;;;11.10;6.50;;;;;;;21.64;89.88;101410.33;106217;1261;72497;-88
2023/09/24 18:58:13;;;;;;;13.10;6.30;;;;;;;21.67;90.46;101410.48;106036;1258;62798;-88
2023/09/24 19:00:40;;;;;;;11.30;6.50;;;;;;;21.61;91.30;101413.05;106019;1262;61491;-88
2023/09/24 19:03:10;;;;;;;12.80;6.50;;;;;;;21.59;91.44;101416.80;106018;1258;73529;-89
2023/09/24 19:05:38;;;;;;;12.30;6.50;;;;;;;21.55;91.91;101418.34;106121;1257;68561;-85
2023/09/24 19:08:05;;;;;;;12.20;6.80;;;;;;;21.63;91.55;101419.33;106115;1263;73563;-88
2023/09/24 19:10:33;;;;;;;11.30;6.80;;;;;;;21.63;90.43;101421.66;106030;1264;61186;-89
2023/09/24 19:13:00;;;;;;;10.10;5.80;;;;;;;21.54;90.83;101422.19;106243;1259;61227;-89
2023/09/24 19:15:27;;;;;;;10.30;5.70;;;;;;;21.55;90.19;101424.06;105955;1264;75884;-88
2023/09/24 19:17:54;;;;;;;11.90;6.30;;;;;;;21.53;89.01;101427.56;105941;1262;68188;-84
2023/09/24 19:20:21;;;;;;;10.50;6.40;;;;;;;21.49;87.70;101426.05;106150;1257;72722;-88
2023/09/24 19:22:48;;;;;;;16.60;7.00;;;;;;;21.40;86.50;101436.14;106007;1257;61230;-88
2023/09/24 19:25:16;;;;;;;12.60;6.70;;;;;;;21.33;86.50;101432.14;106056;1258;61352;-84
2023/09/24 19:27:43;;;;;;;17.50;6.60;;;;;;;21.27;87.10;101434.73;105984;1262;74562;-88
2023/09/24 19:30:11;;;;;;;10.50;6.50;;;;;;;21.24;87.82;101438.03;106200;1257;70217;-89
2023/09/24 19:32:38;;;;;;;11.70;6.70;;;;;;;21.14;88.91;101436.66;105884;1258;71719;-88
2023/09/24 19:35:06;;;;;;;11.90;6.40;;;;;;;21.06;90.06;101440.91;106265;1258;61231;-85
2023/09/24 19:37:33;;;;;;;8.90;6.50;;;;;;;20.91;91.74;101436.26;106878;1257;61145;-90
2023/09/24 19:40:00;;;;;;;10.70;5.90;;;;;;;20.79;93.67;101437.30;105935;1257;74327;-86
2023/09/24 19:42:27;;;;;;;13.60;6.80;;;;;;;20.79;93.73;101438.95;106114;1260;68681;-85
2023/09/24 19:44:55;;;;;;;13.60;7.10;;;;;;;20.76;93.40;101438.33;106179;1263;73024;-88
2023/09/24 19:47:22;;;;;;;11.70;6.00;;;;;;;20.66;93.17;101440.77;106016;1257;61344;-89
2023/09/24 19:49:50;;;;;;;11.90;6.80;;;;;;;20.68;91.48;101442.77;106045;1257;61273;-85
2023/09/24 19:52:17;;;;;;;10.30;6.30;;;;;;;20.63;91.50;101442.00;106038;1257;74439;-85
2023/09/24 19:54:45;;;;;;;8.80;5.30;;;;;;;20.59;92.54;101442.84;106014;1262;68524;-87
2023/09/24 19:57:11;;;;;;;11.00;5.70;;;;;;;20.53;93.25;101442.85;106006;1263;72452;-89
2023/09/24 19:59:40;;;;;;;10.90;5.40;;;;;;;20.38;92.94;101440.31;106042;1260;61247;-88
2023/09/24 20:02:07;;;;;;;9.10;5.50;;;;;;;20.32;93.15;101444.66;106850;1257;61103;-85
2023/09/24 20:04:34;;;;;;;11.90;5.80;;;;;;;20.24;93.58;101442.38;105996;1257;74860;-88
2023/09/24 20:07:02;;;;;;;13.30;5.90;;;;;;;20.21;93.39;101446.29;105953;1258;67575;-89
2023/09/24 20:09:30;;;;;;;12.10;5.40;;;;;;;20.23;93.07;101448.84;106024;1257;73356;-89
2023/09/24 20:11:58;;;;;;;12.70;6.40;;;;;;;20.29;92.13;101451.83;106156;1260;61355;-85
2023/09/24 20:14:25;;;;;;;9.90;6.50;;;;;;;20.25;92.61;101451.19;106047;1257;61257;-85
2023/09/24 20:16:53;;;;;;;11.10;6.20;;;;;;;20.24;92.28;101450.94;105946;1261;74974;-84
2023/09/24 20:19:21;;;;;;;10.10;5.70;;;;;;;20.16;92.51;101458.41;106098;1257;68673;-89
2023/09/24 20:21:48;;;;;;;14.40;5.90;;;;;;;20.09;92.38;101457.45;106055;1256;72788;-85
2023/09/24 20:24:17;;;;;;;10.20;5.90;;;;;;;19.99;92.29;101458.71;107599;1256;61343;-89
2023/09/24 20:26:45;;;;;;;8.50;5.90;;;;;;;19.94;93.15;101458.70;105962;1258;61312;-89
2023/09/24 20:29:12;;;;;;;8.90;5.70;;;;;;;19.91;93.68;101458.65;105934;1262;75980;-88
2023/09/24 20:31:41;;;;;;;9.80;5.90;;;;;;;19.88;94.67;101458.89;106032;1258;67575;-84
2023/09/24 20:34:08;;;;;;;11.00;5.80;;;;;;;19.89;95.93;101457.65;105975;1263;70265;-88
2023/09/24 20:36:36;;;;;;;8.80;5.60;;;;;;;19.92;96.85;101461.02;105924;1261;61207;-89
2023/09/24 20:39:05;;;;;;;14.80;6.20;;;;;;;19.92;97.60;101464.80;106013;1262;61264;-88
2023/09/24 20:41:34;;;;;;;12.40;6.80;;;;;;;19.94;97.98;101463.66;106015;1262;74749;-88
2023/09/24 20:44:02;;;;;;;9.70;5.20;;;;;;;19.96;98.12;101463.63;105935;1257;67159;-89
2023/09/24 20:46:36;;;;;;;10.80;5.40;;;;;;;19.88;98.57;101464.60;106339;1260;71450;-88
2023/09/24 22:09:56;;;;;;;12.50;6.80;;;;;;;19.00;98.26;101473.38;106120;1260;68703;-84
2023/09/24 22:12:32;;;;;;;9.90;5.90;;;;;;;18.88;99.24;101471.92;106005;1257;72919;-89
2023/09/24 22:14:59;;;;;;;10.20;5.20;;;;;;;18.92;98.96;101471.77;105984;1264;61237;-89
2023/09/24 22:17:26;;;;;;;8.50;5.00;;;;;;;19.04;97.98;101475.50;106017;1257;61958;-84
2023/09/24 22:19:53;;;;;;;11.30;5.30;;;;;;;19.00;97.61;101482.91;108083;1257;74642;-89
2023/09/24 22:22:20;;;;;;;10.80;6.30;;;;;;;19.00;97.27;101486.89;108997;1257;67124;-85
2023/09/24 22:24:47;;;;;;;10.90;5.80;;;;;;;18.91;97.93;101483.78;106311;1262;71210;-89
2023/09/24 22:27:14;;;;;;;9.80;6.00;;;;;;;18.89;98.95;101485.42;106087;1257;61363;-88
2023/09/24 22:29:41;;;;;;;9.10;5.30;;;;;;;18.89;99.49;101488.26;106108;1257;61126;-84
2023/09/24 22:32:07;;;;;;;10.50;6.10;;;;;;;18.90;99.44;101484.68;106162;1262;72938;-84
2023/09/24 22:34:34;;;;;;;12.80;5.80;;;;;;;18.84;99.76;101484.92;106173;1257;66983;-88
2023/09/24 22:37:02;;;;;;;7.50;5.60;;;;;;;18.87;99.81;101488.63;106056;1262;71339;-88
2023/09/24 22:39:29;;;;;;;9.90;5.70;;;;;;;18.90;99.60;101485.39;106094;1257;61142;-88
2023/09/24 22:41:56;;;;;;;8.20;5.70;;;;;;;18.91;99.23;101482.23;106071;1257;61262;-84
2023/09/24 22:44:23;;;;;;;10.90;6.50;;;;;;;18.90;99.18;101481.23;106092;1257;73258;-88
2023/09/24 22:46:49;;;;;;;11.70;6.30;;;;;;;18.88;99.17;101479.73;106213;1260;67290;-88
2023/09/24 22:49:16;;;;;;;12.80;5.90;;;;;;;18.80;99.91;101477.98;105983;1260;72438;-84
2023/09/24 22:51:43;;;;;;;10.40;5.50;;;;;;;18.68;99.90;101486.77;105979;1258;61403;-84
2023/09/24 22:54:11;;;;;;;8.90;6.30;;;;;;;18.61;99.49;101486.33;106148;1257;61381;-83